CNH1 UKRB-UKLH
Flight info
| Callsign | CNH1 |
|---|---|
| Flight time | N/A |
| Altitude | 16000 |
| Route | SLV SORON PEVUK VFR |
| Aircraft | AN24/M-SDFG/S |
Departure
| Time | N/A |
|---|---|
| Airport | UKRB |
Arrival
| Time | 2026-04-17 22:58 |
|---|---|
| Airport | Khmelnytskyi Airport (UKLH) |
| Time | Latitude | Longitude | Altitude | Speed | Heading |
|---|---|---|---|---|---|
| 2026-04-17 21:20 | 51.21524 | 32.45646 | 452 ft | 0 kts | 62° |
| 2026-04-17 21:38 | 51.21542 | 32.45705 | 453 ft | 4 kts | 86° |
| 2026-04-17 21:38 | 51.21522 | 32.45766 | 454 ft | 9 kts | 136° |
| 2026-04-17 21:38 | 51.21479 | 32.45814 | 455 ft | 5 kts | 143° |
| 2026-04-17 21:39 | 51.21464 | 32.45840 | 456 ft | 0 kts | 123° |
| 2026-04-17 21:39 | 51.21463 | 32.45845 | 456 ft | 0 kts | 120° |
| 2026-04-17 21:39 | 51.21461 | 32.45850 | 456 ft | 0 kts | 116° |
| 2026-04-17 21:39 | 51.21461 | 32.45851 | 456 ft | 0 kts | 114° |
| 2026-04-17 21:42 | 51.21461 | 32.45852 | 456 ft | 0 kts | 116° |
| 2026-04-17 21:43 | 51.21460 | 32.45852 | 456 ft | 0 kts | 119° |
| 2026-04-17 21:45 | 51.21445 | 32.45915 | 457 ft | 0 kts | 114° |
| 2026-04-17 21:45 | 51.21375 | 32.46038 | 460 ft | 37 kts | 143° |
| 2026-04-17 21:46 | 51.21062 | 32.46397 | 458 ft | 71 kts | 142° |
| 2026-04-17 21:46 | 51.20667 | 32.46802 | 451 ft | 51 kts | 146° |
| 2026-04-17 21:46 | 51.20450 | 32.47026 | 448 ft | 24 kts | 135° |
| 2026-04-17 21:46 | 51.20358 | 32.47131 | 450 ft | 20 kts | 144° |
| 2026-04-17 21:47 | 51.20204 | 32.47255 | 459 ft | 12 kts | 193° |
| 2026-04-17 21:47 | 51.20178 | 32.47115 | 459 ft | 43 kts | 273° |
| 2026-04-17 21:47 | 51.20386 | 32.46600 | 447 ft | 56 kts | 341° |
| 2026-04-17 21:47 | 51.20662 | 32.46767 | 451 ft | 33 kts | 339° |
| 2026-04-17 21:48 | 51.21093 | 32.46336 | 459 ft | 108 kts | 327° |
| 2026-04-17 21:48 | 51.21837 | 32.45618 | 707 ft | 135 kts | 332° |
| 2026-04-17 21:48 | 51.22709 | 32.44957 | 1151 ft | 142 kts | 336° |
| 2026-04-17 21:48 | 51.23701 | 32.44680 | 1467 ft | 165 kts | 10° |
| 2026-04-17 21:49 | 51.24554 | 32.45604 | 1197 ft | 208 kts | 56° |
| 2026-04-17 21:49 | 51.24858 | 32.47879 | 1555 ft | 215 kts | 99° |
| 2026-04-17 21:49 | 51.23971 | 32.49650 | 2046 ft | 215 kts | 157° |
| 2026-04-17 21:49 | 51.22483 | 32.50023 | 2338 ft | 225 kts | 186° |
| 2026-04-17 21:50 | 51.20904 | 32.49795 | 2825 ft | 226 kts | 183° |
| 2026-04-17 21:50 | 51.19361 | 32.49548 | 3288 ft | 228 kts | 187° |
| 2026-04-17 21:50 | 51.17762 | 32.49279 | 3668 ft | 232 kts | 183° |
| 2026-04-17 21:50 | 51.16148 | 32.49038 | 4168 ft | 230 kts | 184° |
| 2026-04-17 21:51 | 51.14588 | 32.49086 | 4752 ft | 227 kts | 181° |
| 2026-04-17 21:51 | 51.13039 | 32.48922 | 5379 ft | 219 kts | 180° |
| 2026-04-17 21:51 | 51.11530 | 32.48913 | 5794 ft | 225 kts | 181° |
| 2026-04-17 21:51 | 51.09969 | 32.48931 | 6395 ft | 218 kts | 180° |
| 2026-04-17 21:52 | 51.08588 | 32.48929 | 7414 ft | 193 kts | 180° |
| 2026-04-17 21:52 | 51.07315 | 32.48899 | 8254 ft | 178 kts | 180° |
| 2026-04-17 21:52 | 51.06132 | 32.48862 | 8984 ft | 170 kts | 180° |
| 2026-04-17 21:52 | 51.04971 | 32.48818 | 9647 ft | 167 kts | 181° |
| 2026-04-17 21:53 | 51.03824 | 32.48758 | 10273 ft | 165 kts | 181° |
| 2026-04-17 21:53 | 51.02687 | 32.48694 | 10879 ft | 165 kts | 181° |
| 2026-04-17 21:53 | 51.01559 | 32.48633 | 11469 ft | 165 kts | 181° |
| 2026-04-17 21:53 | 51.00417 | 32.48574 | 12059 ft | 165 kts | 181° |
| 2026-04-17 21:54 | 50.99283 | 32.48515 | 12635 ft | 164 kts | 181° |
| 2026-04-17 21:54 | 50.98157 | 32.48457 | 13195 ft | 164 kts | 181° |
| 2026-04-17 21:54 | 50.97020 | 32.48397 | 13749 ft | 163 kts | 181° |
| 2026-04-17 21:54 | 50.95916 | 32.48370 | 14284 ft | 161 kts | 179° |
| 2026-04-17 21:55 | 50.94805 | 32.48335 | 14805 ft | 160 kts | 181° |
| 2026-04-17 21:55 | 50.93686 | 32.48278 | 15309 ft | 159 kts | 181° |
| 2026-04-17 21:55 | 50.92590 | 32.48215 | 15786 ft | 159 kts | 181° |
| 2026-04-17 21:55 | 50.91468 | 32.48152 | 16045 ft | 175 kts | 180° |
| 2026-04-17 21:56 | 50.90147 | 32.48103 | 16066 ft | 201 kts | 180° |
| 2026-04-17 21:56 | 50.88675 | 32.48064 | 16143 ft | 220 kts | 180° |
| 2026-04-17 21:56 | 50.87072 | 32.48016 | 16097 ft | 241 kts | 180° |
| 2026-04-17 21:56 | 50.85339 | 32.47953 | 16094 ft | 256 kts | 181° |
| 2026-04-17 21:57 | 50.83527 | 32.47881 | 16042 ft | 270 kts | 181° |
| 2026-04-17 21:57 | 50.81609 | 32.47805 | 16072 ft | 278 kts | 181° |
| 2026-04-17 21:57 | 50.79657 | 32.47731 | 16102 ft | 285 kts | 181° |
| 2026-04-17 21:57 | 50.77666 | 32.47660 | 16039 ft | 293 kts | 181° |
| 2026-04-17 21:58 | 50.75613 | 32.47465 | 16089 ft | 295 kts | 185° |
| 2026-04-17 21:58 | 50.73587 | 32.46989 | 16117 ft | 298 kts | 190° |
| 2026-04-17 21:58 | 50.71536 | 32.46218 | 16052 ft | 303 kts | 195° |
| 2026-04-17 21:58 | 50.69538 | 32.45171 | 16064 ft | 304 kts | 200° |
| 2026-04-17 21:59 | 50.67601 | 32.43860 | 16062 ft | 305 kts | 205° |
| 2026-04-17 21:59 | 50.65733 | 32.42293 | 16075 ft | 306 kts | 210° |
| 2026-04-17 21:59 | 50.63959 | 32.40493 | 16063 ft | 307 kts | 214° |
| 2026-04-17 21:59 | 50.62259 | 32.38437 | 16068 ft | 307 kts | 219° |
| 2026-04-17 22:00 | 50.60688 | 32.36193 | 16062 ft | 308 kts | 224° |
| 2026-04-17 22:00 | 50.59231 | 32.33743 | 16068 ft | 308 kts | 229° |
| 2026-04-17 22:00 | 50.57891 | 32.31086 | 16066 ft | 308 kts | 233° |
| 2026-04-17 22:00 | 50.56702 | 32.28291 | 16068 ft | 308 kts | 238° |
| 2026-04-17 22:01 | 50.55660 | 32.25356 | 16070 ft | 308 kts | 243° |
| 2026-04-17 22:01 | 50.54770 | 32.22304 | 16065 ft | 309 kts | 247° |
| 2026-04-17 22:01 | 50.54036 | 32.19138 | 16066 ft | 302 kts | 251° |
| 2026-04-17 22:01 | 50.53406 | 32.16020 | 16041 ft | 297 kts | 253° |
| 2026-04-17 22:02 | 50.52808 | 32.12949 | 16047 ft | 292 kts | 252° |
| 2026-04-17 22:02 | 50.52188 | 32.09964 | 16089 ft | 287 kts | 251° |
| 2026-04-17 22:02 | 50.51534 | 32.07000 | 16073 ft | 285 kts | 250° |
| 2026-04-17 22:02 | 50.50850 | 32.04071 | 16067 ft | 283 kts | 249° |
| 2026-04-17 22:03 | 50.50145 | 32.01192 | 16110 ft | 280 kts | 251° |
| 2026-04-17 22:03 | 50.49570 | 31.98291 | 16016 ft | 283 kts | 253° |
| 2026-04-17 22:03 | 50.49012 | 31.95311 | 16020 ft | 281 kts | 253° |
| 2026-04-17 22:03 | 50.48436 | 31.92434 | 16085 ft | 277 kts | 252° |
| 2026-04-17 22:04 | 50.47840 | 31.89543 | 16068 ft | 278 kts | 251° |
| 2026-04-17 22:04 | 50.47216 | 31.86703 | 16069 ft | 277 kts | 250° |
| 2026-04-17 22:04 | 50.46634 | 31.83808 | 16085 ft | 276 kts | 253° |
| 2026-04-17 22:04 | 50.46084 | 31.80936 | 16036 ft | 278 kts | 252° |
| 2026-04-17 22:05 | 50.45521 | 31.78054 | 16078 ft | 275 kts | 254° |
| 2026-04-17 22:05 | 50.44977 | 31.75174 | 16103 ft | 275 kts | 253° |
| 2026-04-17 22:05 | 50.44448 | 31.72272 | 16045 ft | 277 kts | 254° |
| 2026-04-17 22:05 | 50.43919 | 31.69370 | 16043 ft | 277 kts | 253° |
| 2026-04-17 22:06 | 50.43364 | 31.66490 | 16064 ft | 276 kts | 254° |
| 2026-04-17 22:06 | 50.42821 | 31.63612 | 16060 ft | 276 kts | 253° |
| 2026-04-17 22:06 | 50.42288 | 31.60755 | 16077 ft | 275 kts | 254° |
| 2026-04-17 22:06 | 50.41757 | 31.57857 | 16069 ft | 276 kts | 253° |
| 2026-04-17 22:07 | 50.41204 | 31.54983 | 16068 ft | 275 kts | 254° |
| 2026-04-17 22:07 | 50.40672 | 31.52111 | 16074 ft | 275 kts | 254° |
| 2026-04-17 22:07 | 50.40156 | 31.49195 | 16065 ft | 276 kts | 254° |
| 2026-04-17 22:07 | 50.39632 | 31.46349 | 16070 ft | 275 kts | 253° |
| 2026-04-17 22:08 | 50.39084 | 31.43462 | 16068 ft | 276 kts | 255° |
| 2026-04-17 22:08 | 50.38560 | 31.40561 | 16054 ft | 276 kts | 254° |
| 2026-04-17 22:08 | 50.38044 | 31.37694 | 16082 ft | 275 kts | 255° |
| 2026-04-17 22:08 | 50.37506 | 31.34794 | 16071 ft | 276 kts | 252° |
| 2026-04-17 22:09 | 50.36936 | 31.31914 | 16014 ft | 278 kts | 251° |
| 2026-04-17 22:09 | 50.36374 | 31.29050 | 16097 ft | 274 kts | 253° |
| 2026-04-17 22:09 | 50.35834 | 31.26193 | 16082 ft | 275 kts | 252° |
| 2026-04-17 22:09 | 50.35263 | 31.23334 | 16027 ft | 277 kts | 253° |
| 2026-04-17 22:10 | 50.34727 | 31.20436 | 16087 ft | 275 kts | 253° |
| 2026-04-17 22:10 | 50.34174 | 31.17573 | 16093 ft | 275 kts | 252° |
| 2026-04-17 22:10 | 50.33628 | 31.14703 | 16083 ft | 275 kts | 254° |
| 2026-04-17 22:10 | 50.33100 | 31.11822 | 16058 ft | 276 kts | 253° |
| 2026-04-17 22:11 | 50.32537 | 31.08957 | 16068 ft | 276 kts | 252° |
| 2026-04-17 22:11 | 50.31936 | 31.06119 | 16060 ft | 276 kts | 250° |
| 2026-04-17 22:11 | 50.31308 | 31.03301 | 16074 ft | 275 kts | 251° |
| 2026-04-17 22:11 | 50.30791 | 31.00415 | 16101 ft | 274 kts | 257° |
| 2026-04-17 22:12 | 50.30381 | 30.97496 | 16008 ft | 278 kts | 257° |
| 2026-04-17 22:12 | 50.29947 | 30.94554 | 16036 ft | 276 kts | 256° |
| 2026-04-17 22:12 | 50.29482 | 30.91621 | 16086 ft | 275 kts | 255° |
| 2026-04-17 22:12 | 50.28998 | 30.88776 | 16073 ft | 275 kts | 254° |
| 2026-04-17 22:13 | 50.28478 | 30.85875 | 16072 ft | 275 kts | 255° |
| 2026-04-17 22:13 | 50.28005 | 30.82967 | 16069 ft | 276 kts | 255° |
| 2026-04-17 22:13 | 50.27499 | 30.80087 | 16041 ft | 277 kts | 254° |
| 2026-04-17 22:13 | 50.27016 | 30.77195 | 16079 ft | 275 kts | 256° |
| 2026-04-17 22:14 | 50.26543 | 30.74286 | 16068 ft | 276 kts | 255° |
| 2026-04-17 22:14 | 50.26037 | 30.71410 | 16068 ft | 276 kts | 254° |
| 2026-04-17 22:14 | 50.25494 | 30.68537 | 16064 ft | 276 kts | 253° |
| 2026-04-17 22:14 | 50.24975 | 30.65646 | 16078 ft | 275 kts | 255° |
| 2026-04-17 22:15 | 50.24460 | 30.62787 | 16060 ft | 276 kts | 253° |
| 2026-04-17 22:15 | 50.23904 | 30.59926 | 16071 ft | 276 kts | 252° |
| 2026-04-17 22:15 | 50.23348 | 30.57067 | 16075 ft | 275 kts | 254° |
| 2026-04-17 22:15 | 50.22798 | 30.54189 | 16057 ft | 276 kts | 253° |
| 2026-04-17 22:16 | 50.22235 | 30.51305 | 16067 ft | 276 kts | 254° |
| 2026-04-17 22:16 | 50.21707 | 30.48442 | 16071 ft | 276 kts | 253° |
| 2026-04-17 22:16 | 50.21144 | 30.45575 | 16066 ft | 276 kts | 252° |
| 2026-04-17 22:16 | 50.20605 | 30.42739 | 16089 ft | 275 kts | 254° |
| 2026-04-17 22:17 | 50.20069 | 30.39870 | 16051 ft | 277 kts | 253° |
| 2026-04-17 22:17 | 50.19493 | 30.36991 | 16049 ft | 276 kts | 252° |
| 2026-04-17 22:17 | 50.18898 | 30.34175 | 16064 ft | 276 kts | 251° |
| 2026-04-17 22:17 | 50.18281 | 30.31311 | 16050 ft | 276 kts | 250° |
| 2026-04-17 22:18 | 50.17758 | 30.28448 | 16080 ft | 275 kts | 255° |
| 2026-04-17 22:18 | 50.17291 | 30.25537 | 16029 ft | 277 kts | 256° |
| 2026-04-17 22:18 | 50.16834 | 30.22634 | 16082 ft | 275 kts | 256° |
| 2026-04-17 22:18 | 50.16387 | 30.19726 | 16095 ft | 275 kts | 256° |
| 2026-04-17 22:19 | 50.15954 | 30.16841 | 16026 ft | 278 kts | 257° |
| 2026-04-17 22:19 | 50.15538 | 30.13896 | 16083 ft | 275 kts | 260° |
| 2026-04-17 22:19 | 50.15250 | 30.10964 | 16106 ft | 275 kts | 262° |
| 2026-04-17 22:19 | 50.14993 | 30.08009 | 16031 ft | 278 kts | 263° |
| 2026-04-17 22:20 | 50.14762 | 30.05016 | 16073 ft | 276 kts | 263° |
| 2026-04-17 22:20 | 50.14561 | 30.02054 | 16103 ft | 275 kts | 264° |
| 2026-04-17 22:20 | 50.14386 | 29.99071 | 16030 ft | 278 kts | 265° |
| 2026-04-17 22:20 | 50.14225 | 29.96073 | 16071 ft | 276 kts | 265° |
| 2026-04-17 22:21 | 50.14078 | 29.93140 | 16105 ft | 275 kts | 265° |
| 2026-04-17 22:21 | 50.13937 | 29.90147 | 16032 ft | 278 kts | 266° |
| 2026-04-17 22:21 | 50.13800 | 29.87126 | 16069 ft | 276 kts | 266° |
| 2026-04-17 22:21 | 50.13668 | 29.84164 | 16105 ft | 275 kts | 266° |
| 2026-04-17 22:22 | 50.13535 | 29.81205 | 16032 ft | 278 kts | 266° |
| 2026-04-17 22:22 | 50.13392 | 29.78191 | 16068 ft | 276 kts | 265° |
| 2026-04-17 22:22 | 50.13244 | 29.75245 | 16107 ft | 275 kts | 265° |
| 2026-04-17 22:22 | 50.13085 | 29.72236 | 16033 ft | 278 kts | 265° |
| 2026-04-17 22:23 | 50.12919 | 29.69252 | 16065 ft | 276 kts | 265° |
| 2026-04-17 22:23 | 50.12744 | 29.66283 | 16108 ft | 275 kts | 264° |
| 2026-04-17 22:23 | 50.12559 | 29.63325 | 16035 ft | 278 kts | 264° |
| 2026-04-17 22:23 | 50.12358 | 29.60306 | 16064 ft | 276 kts | 264° |
| 2026-04-17 22:24 | 50.12152 | 29.57369 | 16109 ft | 275 kts | 264° |
| 2026-04-17 22:24 | 50.11933 | 29.54405 | 16037 ft | 278 kts | 263° |
| 2026-04-17 22:24 | 50.11702 | 29.51431 | 16060 ft | 276 kts | 263° |
| 2026-04-17 22:24 | 50.11459 | 29.48459 | 16110 ft | 275 kts | 263° |
| 2026-04-17 22:25 | 50.11204 | 29.45484 | 16037 ft | 278 kts | 262° |
| 2026-04-17 22:25 | 50.10936 | 29.42510 | 16059 ft | 276 kts | 262° |
| 2026-04-17 22:25 | 50.10659 | 29.39579 | 16111 ft | 275 kts | 262° |
| 2026-04-17 22:25 | 50.10365 | 29.36621 | 16039 ft | 278 kts | 261° |
| 2026-04-17 22:26 | 50.10058 | 29.33674 | 16045 ft | 277 kts | 260° |
| 2026-04-17 22:26 | 50.09739 | 29.30716 | 16052 ft | 277 kts | 260° |
| 2026-04-17 22:26 | 50.09412 | 29.27784 | 16070 ft | 276 kts | 259° |
| 2026-04-17 22:26 | 50.09072 | 29.24817 | 16061 ft | 276 kts | 259° |
| 2026-04-17 22:27 | 50.08735 | 29.21912 | 16072 ft | 276 kts | 259° |
| 2026-04-17 22:27 | 50.08389 | 29.18967 | 16062 ft | 276 kts | 259° |
| 2026-04-17 22:27 | 50.08038 | 29.16005 | 16072 ft | 276 kts | 259° |
| 2026-04-17 22:27 | 50.07688 | 29.13081 | 16064 ft | 276 kts | 259° |
| 2026-04-17 22:28 | 50.07330 | 29.10128 | 16071 ft | 276 kts | 259° |
| 2026-04-17 22:28 | 50.06974 | 29.07218 | 16064 ft | 276 kts | 259° |
| 2026-04-17 22:28 | 50.06613 | 29.04291 | 16067 ft | 276 kts | 259° |
| 2026-04-17 22:28 | 50.06247 | 29.01357 | 16065 ft | 276 kts | 258° |
| 2026-04-17 22:29 | 50.05877 | 28.98422 | 16068 ft | 276 kts | 258° |
| 2026-04-17 22:29 | 50.05500 | 28.95478 | 16068 ft | 276 kts | 258° |
| 2026-04-17 22:29 | 50.05121 | 28.92538 | 16067 ft | 276 kts | 258° |
| 2026-04-17 22:29 | 50.04743 | 28.89616 | 16070 ft | 276 kts | 258° |
| 2026-04-17 22:30 | 50.04372 | 28.86710 | 16062 ft | 277 kts | 259° |
| 2026-04-17 22:30 | 50.04004 | 28.83748 | 16070 ft | 276 kts | 259° |
| 2026-04-17 22:30 | 50.03658 | 28.80802 | 16061 ft | 277 kts | 260° |
| 2026-04-17 22:30 | 50.03251 | 28.77915 | 16116 ft | 275 kts | 254° |
| 2026-04-17 22:31 | 50.02727 | 28.75026 | 16047 ft | 278 kts | 255° |
| 2026-04-17 22:31 | 50.02214 | 28.72122 | 16022 ft | 279 kts | 255° |
| 2026-04-17 22:31 | 50.01712 | 28.69209 | 16100 ft | 276 kts | 255° |
| 2026-04-17 22:31 | 50.01221 | 28.66364 | 16066 ft | 278 kts | 254° |
| 2026-04-17 22:32 | 50.00607 | 28.63511 | 16069 ft | 278 kts | 249° |
| 2026-04-17 22:32 | 49.99915 | 28.60697 | 16040 ft | 279 kts | 249° |
| 2026-04-17 22:32 | 49.99229 | 28.57871 | 16057 ft | 278 kts | 250° |
| 2026-04-17 22:32 | 49.98564 | 28.55094 | 16116 ft | 276 kts | 250° |
| 2026-04-17 22:33 | 49.97895 | 28.52278 | 16038 ft | 279 kts | 250° |
| 2026-04-17 22:33 | 49.97223 | 28.49451 | 16055 ft | 278 kts | 250° |
| 2026-04-17 22:33 | 49.96563 | 28.46656 | 16115 ft | 276 kts | 250° |
| 2026-04-17 22:33 | 49.95902 | 28.43852 | 16038 ft | 279 kts | 250° |
| 2026-04-17 22:34 | 49.95229 | 28.40998 | 16056 ft | 278 kts | 250° |
| 2026-04-17 22:34 | 49.94569 | 28.38186 | 16115 ft | 276 kts | 250° |
| 2026-04-17 22:34 | 49.93916 | 28.35365 | 16053 ft | 279 kts | 251° |
| 2026-04-17 22:34 | 49.93263 | 28.32506 | 15943 ft | 283 kts | 250° |
| 2026-04-17 22:35 | 49.92617 | 28.29616 | 15812 ft | 286 kts | 250° |
| 2026-04-17 22:35 | 49.91866 | 28.26724 | 15753 ft | 286 kts | 245° |
| 2026-04-17 22:35 | 49.91026 | 28.23936 | 15679 ft | 287 kts | 244° |
| 2026-04-17 22:35 | 49.90144 | 28.21122 | 15444 ft | 294 kts | 244° |
| 2026-04-17 22:36 | 49.89240 | 28.18234 | 15004 ft | 305 kts | 244° |
| 2026-04-17 22:36 | 49.88281 | 28.15195 | 14535 ft | 313 kts | 244° |
| 2026-04-17 22:36 | 49.87317 | 28.12158 | 14085 ft | 313 kts | 243° |
| 2026-04-17 22:36 | 49.86363 | 28.09193 | 13627 ft | 304 kts | 243° |
| 2026-04-17 22:37 | 49.85426 | 28.06308 | 13174 ft | 297 kts | 243° |
| 2026-04-17 22:37 | 49.84493 | 28.03459 | 12733 ft | 298 kts | 243° |
| 2026-04-17 22:37 | 49.83558 | 28.00618 | 12306 ft | 300 kts | 243° |
| 2026-04-17 22:37 | 49.82614 | 27.97733 | 11882 ft | 300 kts | 243° |
| 2026-04-17 22:38 | 49.81672 | 27.94846 | 11355 ft | 304 kts | 243° |
| 2026-04-17 22:38 | 49.80724 | 27.91898 | 10753 ft | 309 kts | 244° |
| 2026-04-17 22:38 | 49.79763 | 27.88893 | 10150 ft | 311 kts | 244° |
| 2026-04-17 22:38 | 49.78816 | 27.85920 | 9566 ft | 312 kts | 244° |
| 2026-04-17 22:39 | 49.77801 | 27.82937 | 9017 ft | 311 kts | 240° |
| 2026-04-17 22:39 | 49.76650 | 27.80139 | 8513 ft | 308 kts | 236° |
| 2026-04-17 22:39 | 49.74169 | 27.74760 | 7397 ft | 307 kts | 233° |
| 2026-04-17 22:40 | 49.72887 | 27.72065 | 6844 ft | 316 kts | 234° |
| 2026-04-17 22:40 | 49.71601 | 27.69322 | 6299 ft | 320 kts | 234° |
| 2026-04-17 22:40 | 49.70316 | 27.66528 | 5822 ft | 319 kts | 235° |
| 2026-04-17 22:40 | 49.69067 | 27.63757 | 5864 ft | 304 kts | 236° |
| 2026-04-17 22:41 | 49.67902 | 27.61103 | 5780 ft | 298 kts | 236° |
| 2026-04-17 22:41 | 49.66763 | 27.58484 | 5824 ft | 289 kts | 236° |
| 2026-04-17 22:41 | 49.65637 | 27.55933 | 5858 ft | 283 kts | 234° |
| 2026-04-17 22:41 | 49.64357 | 27.53684 | 5834 ft | 281 kts | 224° |
| 2026-04-17 22:42 | 49.62829 | 27.51839 | 5875 ft | 277 kts | 213° |
| 2026-04-17 22:42 | 49.61138 | 27.50492 | 5900 ft | 275 kts | 202° |
| 2026-04-17 22:42 | 49.59299 | 27.49627 | 5916 ft | 274 kts | 194° |
| 2026-04-17 22:42 | 49.57438 | 27.48916 | 5848 ft | 277 kts | 194° |
| 2026-04-17 22:43 | 49.55579 | 27.48220 | 5778 ft | 278 kts | 194° |
| 2026-04-17 22:43 | 49.53837 | 27.47571 | 5663 ft | 281 kts | 194° |
| 2026-04-17 22:43 | 49.53355 | 27.47391 | 5611 ft | 282 kts | 194° |
| 2026-04-17 22:43 | 49.51451 | 27.46675 | 5438 ft | 285 kts | 194° |
| 2026-04-17 22:44 | 49.49517 | 27.45929 | 5272 ft | 287 kts | 195° |
| 2026-04-17 22:44 | 49.47591 | 27.45152 | 5113 ft | 288 kts | 195° |
| 2026-04-17 22:44 | 49.45648 | 27.44341 | 4957 ft | 288 kts | 196° |
| 2026-04-17 22:44 | 49.43724 | 27.43510 | 4806 ft | 288 kts | 196° |
| 2026-04-17 22:45 | 49.41793 | 27.42662 | 4659 ft | 288 kts | 196° |
| 2026-04-17 22:45 | 49.39875 | 27.41827 | 4516 ft | 288 kts | 196° |
| 2026-04-17 22:45 | 49.37953 | 27.41006 | 4375 ft | 287 kts | 195° |
| 2026-04-17 22:45 | 49.36038 | 27.40211 | 4225 ft | 287 kts | 195° |
| 2026-04-17 22:46 | 49.34091 | 27.39428 | 4046 ft | 288 kts | 195° |
| 2026-04-17 22:46 | 49.32168 | 27.38679 | 3883 ft | 288 kts | 194° |
| 2026-04-17 22:46 | 49.30238 | 27.37945 | 3921 ft | 281 kts | 194° |
| 2026-04-17 22:46 | 49.28369 | 27.37240 | 3843 ft | 280 kts | 194° |
| 2026-04-17 22:47 | 49.26465 | 27.36529 | 3883 ft | 275 kts | 194° |
| 2026-04-17 22:47 | 49.24638 | 27.35831 | 3918 ft | 272 kts | 195° |
| 2026-04-17 22:47 | 49.22801 | 27.35096 | 3846 ft | 274 kts | 195° |
| 2026-04-17 22:47 | 49.20974 | 27.34323 | 3873 ft | 271 kts | 195° |
| 2026-04-17 22:48 | 49.19162 | 27.33507 | 3909 ft | 269 kts | 197° |
| 2026-04-17 22:48 | 49.17447 | 27.32429 | 3906 ft | 269 kts | 208° |
| 2026-04-17 22:48 | 49.15906 | 27.30757 | 3844 ft | 271 kts | 223° |
| 2026-04-17 22:48 | 49.14757 | 27.28513 | 3878 ft | 269 kts | 241° |
| 2026-04-17 22:49 | 49.14211 | 27.25815 | 3875 ft | 264 kts | 263° |
| 2026-04-17 22:49 | 49.14256 | 27.23064 | 3855 ft | 256 kts | 273° |
| 2026-04-17 22:49 | 49.14375 | 27.20389 | 3862 ft | 249 kts | 274° |
| 2026-04-17 22:49 | 49.14502 | 27.17770 | 3902 ft | 243 kts | 274° |
| 2026-04-17 22:50 | 49.14639 | 27.15223 | 3886 ft | 241 kts | 275° |
| 2026-04-17 22:50 | 49.14785 | 27.12691 | 3875 ft | 239 kts | 275° |
| 2026-04-17 22:50 | 49.14960 | 27.10178 | 3892 ft | 236 kts | 279° |
| 2026-04-17 22:50 | 49.15395 | 27.07798 | 3910 ft | 230 kts | 291° |
| 2026-04-17 22:51 | 49.16117 | 27.05744 | 3827 ft | 207 kts | 305° |
| 2026-04-17 22:51 | 49.16892 | 27.04035 | 3775 ft | 182 kts | 303° |
| 2026-04-17 22:51 | 49.17524 | 27.02565 | 3809 ft | 153 kts | 302° |
| 2026-04-17 22:51 | 49.18070 | 27.01274 | 3856 ft | 140 kts | 303° |
| 2026-04-17 22:52 | 49.18587 | 27.00085 | 4076 ft | 131 kts | 304° |
| 2026-04-17 22:52 | 49.19116 | 26.98911 | 4014 ft | 140 kts | 305° |
| 2026-04-17 22:52 | 49.19706 | 26.97665 | 3937 ft | 147 kts | 307° |
| 2026-04-17 22:52 | 49.20209 | 26.96802 | 3912 ft | 149 kts | 319° |
| 2026-04-17 22:53 | 49.21093 | 26.95984 | 3912 ft | 149 kts | 339° |
| 2026-04-17 22:53 | 49.22128 | 26.95670 | 3764 ft | 159 kts | 356° |
| 2026-04-17 22:53 | 49.23284 | 26.95890 | 3451 ft | 173 kts | 16° |
| 2026-04-17 22:53 | 49.24369 | 26.96493 | 3558 ft | 153 kts | 24° |
| 2026-04-17 22:54 | 49.25325 | 26.96980 | 3663 ft | 133 kts | 7° |
| 2026-04-17 22:54 | 49.26251 | 26.96855 | 3392 ft | 145 kts | 355° |
| 2026-04-17 22:54 | 49.27280 | 26.96653 | 3102 ft | 149 kts | 352° |
| 2026-04-17 22:54 | 49.28274 | 26.96438 | 2953 ft | 145 kts | 347° |
| 2026-04-17 22:55 | 49.29254 | 26.95991 | 2660 ft | 142 kts | 341° |
| 2026-04-17 22:55 | 49.30162 | 26.95558 | 2198 ft | 140 kts | 347° |
| 2026-04-17 22:55 | 49.30380 | 26.95490 | 2080 ft | 142 kts | 349° |
| 2026-04-17 22:55 | 49.30941 | 26.95293 | 1924 ft | 131 kts | 342° |
| 2026-04-17 22:56 | 49.31071 | 26.95227 | 1909 ft | 127 kts | 341° |
| 2026-04-17 22:56 | 49.31789 | 26.94917 | 1715 ft | 123 kts | 346° |
| 2026-04-17 22:56 | 49.32632 | 26.94619 | 1452 ft | 123 kts | 348° |
| 2026-04-17 22:56 | 49.33432 | 26.94291 | 1289 ft | 116 kts | 346° |
| 2026-04-17 22:57 | 49.34244 | 26.94035 | 1249 ft | 118 kts | 345° |
| 2026-04-17 22:57 | 49.35054 | 26.93727 | 1157 ft | 115 kts | 346° |
| 2026-04-17 22:57 | 49.35773 | 26.93445 | 1150 ft | 89 kts | 347° |
| 2026-04-17 22:57 | 49.36226 | 26.93272 | 1150 ft | 51 kts | 347° |
| 2026-04-17 22:58 | 49.36594 | 26.93125 | 1148 ft | 43 kts | 346° |
| 2026-04-17 22:58 | 49.36805 | 26.93047 | 1148 ft | 15 kts | 336° |
| 2026-04-17 22:58 | 49.36848 | 26.92989 | 1148 ft | 3 kts | 288° |
| 2026-04-17 22:58 | 49.36802 | 26.92899 | 1147 ft | 9 kts | 176° |
| 2026-04-17 22:59 | 49.36769 | 26.92907 | 1147 ft | 0 kts | 165° |